Time;durP1;ratioP1;P1;durP2;ratioP2;P2;SDS_P1;SDS_P2;PMS_P1;PMS_P2;Temp;Humidity;BMP_temperature;BMP_pressure;BME280_temperature;BME280_humidity;BME280_pressure;Samples;Min_cycle;Max_cycle;Signal;HPM_P1;HPM_P2
2022/11/13 00:02:14;;;;;;;64.20;27.88;;;9.30;69.60;;;;;;6337725;22;19999;-76
2022/11/13 00:04:40;;;;;;;61.92;27.92;;;9.30;69.60;;;;;;6309739;22;20007;-75
2022/11/13 00:07:06;;;;;;;62.60;25.73;;;9.30;69.50;;;;;;6309999;22;20338;-74
2022/11/13 00:09:31;;;;;;;49.50;22.90;;;9.30;69.30;;;;;;6337922;22;19995;-75
2022/11/13 00:11:57;;;;;;;47.05;22.42;;;9.20;69.10;;;;;;6337817;22;19995;-76
2022/11/13 00:14:23;;;;;;;48.03;21.45;;;9.10;68.90;;;;;;6337768;22;20303;-76
2022/11/13 00:16:49;;;;;;;43.75;21.85;;;9.10;68.90;;;;;;6337901;22;20056;-76
2022/11/13 00:19:14;;;;;;;44.60;20.48;;;9.00;68.90;;;;;;6337530;22;20017;-75
2022/11/13 00:21:40;;;;;;;43.55;20.05;;;9.00;69.00;;;;;;6337852;22;19998;-75
2022/11/13 00:24:06;;;;;;;44.65;21.33;;;9.00;69.10;;;;;;6309940;22;20105;-77
2022/11/13 00:26:32;;;;;;;53.83;22.98;;;9.00;69.40;;;;;;6337632;22;20003;-75
2022/11/13 00:29:00;;;;;;;44.78;22.58;;;9.00;69.60;;;;;;6337702;22;20307;-75
2022/11/13 00:31:28;;;;;;;49.20;22.52;;;8.90;69.70;;;;;;6338235;22;20022;-76
2022/11/13 00:33:54;;;;;;;66.18;22.80;;;9.00;69.90;;;;;;6338222;22;19999;-76
2022/11/13 00:36:23;;;;;;;42.22;21.65;;;8.90;70.00;;;;;;6337870;22;20007;-76
2022/11/13 00:38:49;;;;;;;46.25;21.10;;;8.90;69.80;;;;;;6338055;22;20014;-75
2022/11/13 00:41:15;;;;;;;42.53;20.08;;;9.00;69.80;;;;;;6338044;22;19999;-77
2022/11/13 00:43:41;;;;;;;42.97;19.83;;;9.00;69.80;;;;;;6310140;22;20461;-74
2022/11/13 00:46:08;;;;;;;40.97;20.27;;;9.00;69.80;;;;;;6337594;22;20005;-76
2022/11/13 00:48:34;;;;;;;44.40;21.42;;;9.00;69.90;;;;;;6309836;22;20029;-76
2022/11/13 00:51:01;;;;;;;43.90;21.17;;;9.00;69.90;;;;;;6337686;22;20387;-76
2022/11/13 00:53:27;;;;;;;51.85;23.83;;;9.10;69.90;;;;;;6337599;22;19995;-76
2022/11/13 00:55:53;;;;;;;49.58;24.85;;;9.10;69.80;;;;;;6309908;22;20094;-76
2022/11/13 00:58:19;;;;;;;61.67;24.70;;;9.10;69.60;;;;;;6309887;22;20060;-76
2022/11/13 01:00:46;;;;;;;63.90;23.98;;;9.10;69.30;;;;;;6337284;22;20434;-76
2022/11/13 01:03:13;;;;;;;57.85;23.13;;;9.10;69.20;;;;;;6337513;22;19995;-75
2022/11/13 01:05:41;;;;;;;80.03;23.15;;;9.10;69.20;;;;;;6337369;22;20102;-75
2022/11/13 01:08:08;;;;;;;55.35;21.98;;;9.00;69.20;;;;;;6337314;22;19999;-76
2022/11/13 01:10:39;;;;;;;112.30;23.20;;;9.10;69.30;;;;;;6309667;22;20125;-75
2022/11/13 01:13:05;;;;;;;75.88;24.50;;;9.10;69.20;;;;;;6337451;22;20003;-76
2022/11/13 01:15:31;;;;;;;93.03;25.10;;;9.10;69.20;;;;;;6309745;22;20059;-75
2022/11/13 01:17:57;;;;;;;56.05;23.60;;;9.00;69.10;;;;;;6311630;22;20406;-75
2022/11/13 01:20:23;;;;;;;67.97;21.50;;;9.10;69.20;;;;;;6339028;22;20404;-74
2022/11/13 01:22:49;;;;;;;43.95;20.08;;;9.10;69.10;;;;;;6311616;22;20002;-74
2022/11/13 01:25:17;;;;;;;44.08;19.60;;;9.10;69.10;;;;;;6339180;22;20002;-75
2022/11/13 01:27:43;;;;;;;58.30;21.13;;;9.00;69.10;;;;;;6339091;22;20007;-76
2022/11/13 01:30:10;;;;;;;36.33;18.58;;;9.00;68.90;;;;;;6338745;22;20056;-75
2022/11/13 01:32:36;;;;;;;39.25;16.65;;;9.00;68.70;;;;;;6338135;22;20005;-76
2022/11/13 01:35:02;;;;;;;30.38;15.80;;;9.10;68.80;;;;;;6311544;22;19999;-75
2022/11/13 01:37:28;;;;;;;38.88;18.00;;;9.10;68.80;;;;;;6339079;22;19999;-76
2022/11/13 01:39:54;;;;;;;64.18;22.35;;;9.10;68.90;;;;;;6338997;22;19999;-76
2022/11/13 01:42:20;;;;;;;45.60;19.80;;;9.00;68.80;;;;;;6339064;22;20003;-74
2022/11/13 01:44:46;;;;;;;47.35;19.02;;;9.00;68.60;;;;;;6311556;22;20044;-76
2022/11/13 01:47:11;;;;;;;48.67;19.27;;;9.00;68.60;;;;;;6338929;22;20453;-75
2022/11/13 01:49:40;;;;;;;48.60;20.70;;;9.00;68.40;;;;;;6339027;22;19999;-74
2022/11/13 01:52:28;;;;;;;68.00;22.58;;;9.00;68.40;;;;;;6338900;22;20062;-74
2022/11/13 01:55:20;;;;;;;57.30;20.23;;;8.90;68.50;;;;;;6337757;22;20003;-77
2022/11/13 01:57:46;;;;;;;82.50;29.85;;;8.90;68.50;;;;;;6331689;22;20003;-76
2022/11/13 02:00:12;;;;;;;63.38;26.10;;;8.90;68.50;;;;;;6338788;22;20425;-76
2022/11/13 02:02:38;;;;;;;68.03;24.77;;;8.90;68.40;;;;;;6338619;22;19998;-76
2022/11/13 02:05:07;;;;;;;58.45;24.42;;;8.80;68.20;;;;;;6338765;22;20357;-75
2022/11/13 02:07:33;;;;;;;54.60;23.55;;;8.80;68.30;;;;;;6338632;22;20076;-74
2022/11/13 02:10:00;;;;;;;53.85;22.13;;;8.80;68.50;;;;;;6338804;22;19995;-76
2022/11/13 02:12:39;;;;;;;50.22;23.23;;;8.80;68.70;;;;;;6311134;22;20018;-77
2022/11/13 02:15:07;;;;;;;71.05;28.55;;;8.70;68.90;;;;;;6338202;22;20425;-75
2022/11/13 02:17:53;;;;;;;89.20;35.28;;;8.80;69.20;;;;;;6338487;22;20430;-76
2022/11/13 02:20:31;;;;;;;80.03;33.42;;;8.80;69.40;;;;;;6338472;22;20018;-75
2022/11/13 02:23:00;;;;;;;78.72;32.65;;;8.80;69.50;;;;;;6338623;22;20403;-75
2022/11/13 02:25:28;;;;;;;84.72;32.80;;;8.80;69.50;;;;;;6338512;22;19998;-75
2022/11/13 02:27:54;;;;;;;106.95;33.22;;;8.80;69.50;;;;;;6337977;22;20521;-75
2022/11/13 02:30:28;;;;;;;91.82;32.65;;;8.90;69.60;;;;;;6310663;22;20005;-74
2022/11/13 02:32:55;;;;;;;97.93;31.85;;;8.90;69.50;;;;;;6338420;22;20002;-74
2022/11/13 02:35:33;;;;;;;71.45;29.98;;;8.90;69.40;;;;;;6338514;22;20360;-75
2022/11/13 02:38:01;;;;;;;79.60;27.52;;;8.80;69.40;;;;;;6338493;22;20383;-77
2022/11/13 02:40:29;;;;;;;69.18;25.52;;;8.90;69.50;;;;;;6338543;22;19995;-75
2022/11/13 02:42:55;;;;;;;53.13;23.67;;;8.80;69.30;;;;;;6338478;22;19995;-76
2022/11/13 02:45:22;;;;;;;56.78;23.90;;;8.80;69.30;;;;;;6338406;22;20006;-74
2022/11/13 02:47:48;;;;;;;99.43;28.55;;;8.80;69.40;;;;;;6310465;22;20041;-76
2022/11/13 02:50:15;;;;;;;58.08;24.38;;;8.80;69.50;;;;;;6310645;22;20023;-76
2022/11/13 02:52:40;;;;;;;85.05;27.15;;;8.80;69.50;;;;;;6310748;22;20341;-74
2022/11/13 02:55:07;;;;;;;90.82;28.15;;;8.80;69.50;;;;;;6338369;22;19998;-77
2022/11/13 02:57:33;;;;;;;111.18;29.20;;;8.80;69.40;;;;;;6338222;22;20048;-76
2022/11/13 03:00:01;;;;;;;51.30;23.98;;;8.70;69.00;;;;;;6338150;22;20429;-76
2022/11/13 03:02:28;;;;;;;51.70;25.38;;;8.70;68.80;;;;;;6338207;22;20070;-75
2022/11/13 03:04:54;;;;;;;53.83;23.38;;;8.70;69.40;;;;;;6338028;22;20003;-76
2022/11/13 03:07:19;;;;;;;47.92;21.23;;;8.60;68.50;;;;;;6338201;22;19998;-75
2022/11/13 03:09:45;;;;;;;42.17;20.92;;;8.60;68.40;;;;;;6338103;22;20048;-77
2022/11/13 03:12:11;;;;;;;46.10;22.02;;;8.50;68.40;;;;;;6310428;22;19999;-76
2022/11/13 03:14:37;;;;;;;41.58;20.13;;;8.40;68.30;;;;;;6338068;22;20018;-75
2022/11/13 03:17:02;;;;;;;47.45;22.40;;;8.40;68.40;;;;;;6338202;22;20439;-75
2022/11/13 03:19:28;;;;;;;44.17;22.25;;;8.30;68.40;;;;;;6337881;22;20022;-76
2022/11/13 03:21:54;;;;;;;47.60;21.45;;;8.20;68.40;;;;;;6308134;22;20093;-75
2022/11/13 03:24:20;;;;;;;46.15;20.35;;;8.20;68.40;;;;;;6337529;22;20003;-75
2022/11/13 03:26:46;;;;;;;36.22;18.30;;;8.10;68.50;;;;;;6337893;22;20384;-73
2022/11/13 03:29:13;;;;;;;36.25;17.17;;;8.10;68.50;;;;;;6338043;22;19994;-76
2022/11/13 03:31:38;;;;;;;39.28;17.60;;;8.10;68.60;;;;;;6310060;22;20052;-76
2022/11/13 03:34:04;;;;;;;34.47;15.60;;;8.00;68.60;;;;;;6338038;22;19995;-74
2022/11/13 03:36:30;;;;;;;29.75;13.68;;;8.00;68.60;;;;;;6337979;22;19998;-76
2022/11/13 03:38:55;;;;;;;29.48;13.68;;;8.00;68.80;;;;;;6337939;22;19994;-77
2022/11/13 03:41:22;;;;;;;27.42;13.27;;;7.90;68.70;;;;;;6338311;22;20003;-76
2022/11/13 03:43:48;;;;;;;28.95;14.57;;;7.90;68.80;;;;;;6337925;22;20002;-76
2022/11/13 03:46:14;;;;;;;34.90;15.25;;;7.80;68.70;;;;;;6337725;22;20072;-74
2022/11/13 03:48:40;;;;;;;33.42;13.38;;;7.80;68.80;;;;;;6337653;22;20053;-76
2022/11/13 03:51:05;;;;;;;29.65;13.88;;;7.80;68.90;;;;;;6337822;22;19983;-75
2022/11/13 03:53:31;;;;;;;21.45;11.77;;;7.70;68.80;;;;;;6337769;22;20044;-77
2022/11/13 03:55:57;;;;;;;25.98;12.38;;;7.70;68.80;;;;;;6337718;22;19997;-74
2022/11/13 03:58:23;;;;;;;26.38;12.27;;;7.70;68.90;;;;;;6337679;22;20109;-76
2022/11/13 04:00:49;;;;;;;30.70;12.68;;;7.70;68.90;;;;;;6337490;22;20422;-75
2022/11/13 04:03:15;;;;;;;27.55;12.45;;;7.60;68.90;;;;;;6309848;22;20086;-77
2022/11/13 04:05:42;;;;;;;30.65;12.70;;;7.60;69.00;;;;;;6337536;22;20022;-74
2022/11/13 04:08:08;;;;;;;30.52;13.27;;;7.60;69.10;;;;;;6337582;22;20422;-75
2022/11/13 04:10:34;;;;;;;26.48;11.40;;;7.60;69.20;;;;;;6337643;22;20074;-75
2022/11/13 04:13:01;;;;;;;22.33;10.25;;;7.60;69.30;;;;;;6337527;22;19995;-74
2022/11/13 04:15:26;;;;;;;19.30;8.70;;;7.50;69.20;;;;;;6337643;22;20044;-74
2022/11/13 04:17:52;;;;;;;12.45;7.22;;;7.50;69.30;;;;;;6337653;22;19998;-76
2022/11/13 04:20:18;;;;;;;12.40;6.53;;;7.50;69.30;;;;;;6337376;22;20064;-74
2022/11/13 04:22:44;;;;;;;14.45;6.95;;;7.50;69.40;;;;;;6309987;22;20334;-76
2022/11/13 04:25:10;;;;;;;13.60;7.05;;;7.50;69.40;;;;;;6337760;22;20421;-74
2022/11/13 04:27:36;;;;;;;11.93;6.20;;;7.50;69.40;;;;;;6310403;22;20015;-75
2022/11/13 04:30:03;;;;;;;12.63;5.90;;;7.50;69.50;;;;;;6337473;22;20333;-75
2022/11/13 04:32:30;;;;;;;11.05;6.07;;;7.50;69.50;;;;;;6337715;22;20026;-76
2022/11/13 04:34:56;;;;;;;12.30;5.90;;;7.50;69.60;;;;;;6337648;22;20352;-75
2022/11/13 04:37:22;;;;;;;11.27;5.90;;;7.50;69.60;;;;;;6337691;22;20093;-76
2022/11/13 04:39:47;;;;;;;11.35;6.53;;;7.50;69.60;;;;;;6337564;22;20323;-76
2022/11/13 04:44:57;;;;;;;8.85;4.95;;;7.50;69.70;;;;;;6337684;22;20049;-74
2022/11/13 04:47:23;;;;;;;10.70;5.45;;;7.50;69.70;;;;;;6337332;22;19999;-75
2022/11/13 04:49:49;;;;;;;13.82;5.93;;;7.40;69.70;;;;;;6337483;22;20470;-75
2022/11/13 04:52:15;;;;;;;12.70;6.63;;;7.40;69.80;;;;;;6338829;22;20326;-75
2022/11/13 04:54:40;;;;;;;14.18;7.35;;;7.40;69.80;;;;;;6311718;22;20035;-75
2022/11/13 04:57:06;;;;;;;8.38;6.05;;;7.40;69.90;;;;;;6311780;22;20010;-77
2022/11/13 04:59:32;;;;;;;10.02;5.65;;;7.40;70.20;;;;;;6339095;22;20064;-77
2022/11/13 05:01:58;;;;;;;9.32;5.20;;;7.40;70.20;;;;;;6339255;22;20022;-75
2022/11/13 05:04:24;;;;;;;8.75;4.93;;;7.40;70.20;;;;;;6311889;22;20003;-76
2022/11/13 05:06:49;;;;;;;9.70;5.93;;;7.40;70.10;;;;;;6311538;22;20007;-76
2022/11/13 05:09:15;;;;;;;9.73;5.53;;;7.40;70.10;;;;;;6339342;22;20002;-76
2022/11/13 05:11:41;;;;;;;15.18;6.90;;;7.30;70.00;;;;;;6311713;22;20011;-74
2022/11/13 05:14:07;;;;;;;16.10;6.93;;;7.30;70.00;;;;;;6339179;22;20069;-75
2022/11/13 05:16:35;;;;;;;10.65;7.03;;;7.30;70.10;;;;;;6339277;22;20010;-75
2022/11/13 05:19:05;;;;;;;12.45;6.65;;;7.30;70.10;;;;;;6338884;22;20006;-76
2022/11/13 05:21:36;;;;;;;12.70;8.13;;;7.30;70.10;;;;;;6311984;22;20014;-74
2022/11/13 05:24:02;;;;;;;16.27;9.10;;;7.30;70.20;;;;;;6339198;22;20006;-75
2022/11/13 05:26:28;;;;;;;14.88;8.73;;;7.30;70.50;;;;;;6339074;22;20013;-75
2022/11/13 05:28:59;;;;;;;16.38;8.07;;;7.30;70.80;;;;;;6339137;22;20034;-74
2022/11/13 05:31:25;;;;;;;15.40;10.18;;;7.30;70.90;;;;;;6339042;22;19998;-76
2022/11/13 05:33:51;;;;;;;19.60;11.27;;;7.30;70.80;;;;;;6311614;22;20011;-74
2022/11/13 05:36:19;;;;;;;17.10;10.57;;;7.20;70.80;;;;;;6339115;22;19999;-76
2022/11/13 05:38:45;;;;;;;16.55;10.90;;;7.20;70.80;;;;;;6339083;22;20330;-76
2022/11/13 05:41:14;;;;;;;13.85;8.57;;;7.20;70.80;;;;;;6311533;22;20003;-75
2022/11/13 05:43:41;;;;;;;15.50;9.93;;;7.20;70.70;;;;;;6339044;22;20359;-74
2022/11/13 05:46:16;;;;;;;18.48;10.88;;;7.20;70.50;;;;;;6311349;22;20068;-75
2022/11/13 05:48:43;;;;;;;19.25;10.80;;;7.20;71.40;;;;;;6339084;22;19995;-77
2022/11/13 05:51:13;;;;;;;22.48;11.63;;;7.20;70.70;;;;;;6338948;22;20066;-75
2022/11/13 05:53:40;;;;;;;19.00;11.05;;;7.10;70.70;;;;;;6311277;22;20026;-74
2022/11/13 05:56:11;;;;;;;20.63;11.50;;;7.10;70.70;;;;;;6339134;22;20079;-76
2022/11/13 05:58:37;;;;;;;19.17;10.63;;;7.10;70.70;;;;;;6339311;22;20026;-74
2022/11/13 06:01:13;;;;;;;17.80;10.35;;;7.10;70.70;;;;;;6313819;22;20338;-74
2022/11/13 06:03:39;;;;;;;20.02;11.23;;;7.10;70.70;;;;;;6345792;22;20010;-76
2022/11/13 06:06:07;;;;;;;18.00;10.18;;;7.10;70.70;;;;;;6346200;22;19998;-74
2022/11/13 06:08:33;;;;;;;17.05;10.55;;;7.10;70.70;;;;;;6345038;22;20487;-75
2022/11/13 06:11:04;;;;;;;21.95;13.80;;;7.10;70.70;;;;;;6339106;22;19998;-76
2022/11/13 06:13:31;;;;;;;24.27;14.75;;;7.10;71.00;;;;;;6338632;22;19999;-74
2022/11/13 06:16:05;;;;;;;23.10;13.98;;;7.10;71.30;;;;;;6338803;22;20075;-76
2022/11/13 06:18:31;;;;;;;;;;;7.10;71.70;;;;;;6339199;22;20029;-76
2022/11/13 06:21:04;;;;;;;25.50;13.43;;;7.10;71.60;;;;;;6338518;22;19910;-75
2022/11/13 06:23:35;;;;;;;23.77;13.68;;;7.10;71.50;;;;;;6338663;22;20062;-76
2022/11/13 06:26:13;;;;;;;28.52;14.38;;;7.10;71.60;;;;;;6338568;22;20011;-76
2022/11/13 06:28:39;;;;;;;22.13;13.27;;;7.10;71.90;;;;;;6338735;22;20066;-76
2022/11/13 06:31:26;;;;;;;28.45;14.00;;;7.20;72.10;;;;;;6338294;22;20029;-75
2022/11/13 06:33:52;;;;;;;25.05;13.95;;;7.20;72.40;;;;;;6338672;22;19999;-75
2022/11/13 06:36:24;;;;;;;24.92;14.52;;;7.20;72.60;;;;;;6338459;22;20007;-77
2022/11/13 06:38:50;;;;;;;26.73;14.50;;;7.30;73.00;;;;;;6338455;22;20355;-76
2022/11/13 06:41:19;;;;;;;18.10;10.43;;;7.30;73.00;;;;;;6338539;22;20079;-74
2022/11/13 06:43:46;;;;;;;22.20;10.73;;;7.30;72.80;;;;;;6310861;22;20432;-77
2022/11/13 06:46:17;;;;;;;19.40;10.20;;;7.40;72.70;;;;;;6338375;22;20006;-74
2022/11/13 06:48:44;;;;;;;16.73;9.13;;;7.40;72.60;;;;;;6338485;22;19995;-75
2022/11/13 06:51:15;;;;;;;14.98;8.73;;;7.50;72.60;;;;;;6338434;22;19991;-76
2022/11/13 06:53:41;;;;;;;11.73;7.70;;;7.50;72.60;;;;;;6338463;22;20325;-75
2022/11/13 06:56:08;;;;;;;14.07;9.18;;;7.60;72.60;;;;;;6338442;22;19994;-75
2022/11/13 06:58:33;;;;;;;18.42;10.20;;;7.60;72.60;;;;;;6310763;22;20034;-77
2022/11/13 07:01:10;;;;;;;19.95;10.90;;;7.60;72.60;;;;;;6338121;22;19995;-75
2022/11/13 07:03:36;;;;;;;27.27;15.88;;;7.70;72.80;;;;;;6338368;22;20078;-74
2022/11/13 07:06:07;;;;;;;34.08;20.30;;;7.70;72.70;;;;;;6310482;22;20015;-75
2022/11/13 07:08:34;;;;;;;44.40;26.90;;;7.80;72.60;;;;;;6338387;22;20322;-77
2022/11/13 07:11:00;;;;;;;56.47;31.52;;;7.80;72.50;;;;;;6338409;22;19999;-75
2022/11/13 07:13:27;;;;;;;60.70;35.05;;;7.80;72.50;;;;;;6337983;22;19999;-74
2022/11/13 07:15:53;;;;;;;55.63;34.75;;;7.90;72.70;;;;;;6338210;22;20026;-74
2022/11/13 07:18:21;;;;;;;64.63;36.90;;;7.90;72.90;;;;;;6338183;22;20013;-74
2022/11/13 07:20:47;;;;;;;71.03;39.42;;;8.00;73.10;;;;;;6310100;22;20018;-75
2022/11/13 07:23:13;;;;;;;72.68;40.85;;;8.00;73.20;;;;;;6338199;22;19995;-74
2022/11/13 07:25:38;;;;;;;69.18;39.30;;;8.00;73.30;;;;;;6310356;22;20330;-77
2022/11/13 07:28:04;;;;;;;76.00;40.80;;;8.10;73.20;;;;;;6310388;22;20397;-76
2022/11/13 07:30:30;;;;;;;69.68;38.72;;;8.10;73.20;;;;;;6338015;22;20511;-74
2022/11/13 07:33:01;;;;;;;60.30;37.00;;;8.20;73.20;;;;;;6337935;22;19991;-74
2022/11/13 07:35:27;;;;;;;47.90;27.73;;;8.20;73.30;;;;;;6338190;22;20325;-74
2022/11/13 07:37:56;;;;;;;47.22;27.90;;;8.30;73.30;;;;;;6338117;22;20029;-75
2022/11/13 07:40:22;;;;;;;49.13;27.33;;;8.30;73.30;;;;;;6338055;22;20056;-73
2022/11/13 07:42:56;;;;;;;49.25;26.83;;;8.40;73.30;;;;;;6337896;22;20085;-74
2022/11/13 07:45:22;;;;;;;50.42;27.77;;;8.50;73.30;;;;;;6310366;22;20377;-75
2022/11/13 07:47:47;;;;;;;41.97;25.48;;;8.50;73.10;;;;;;6337826;22;20022;-75
2022/11/13 07:50:13;;;;;;;45.20;27.70;;;8.60;73.10;;;;;;6337887;22;20029;-74
2022/11/13 07:52:39;;;;;;;46.88;25.92;;;8.60;73.00;;;;;;6310099;22;19999;-75
2022/11/13 07:55:05;;;;;;;43.53;24.92;;;8.70;73.10;;;;;;6337937;22;20041;-76
2022/11/13 07:57:31;;;;;;;39.85;25.15;;;8.80;73.30;;;;;;6337907;22;20071;-73
2022/11/13 07:59:57;;;;;;;46.13;27.23;;;8.90;73.40;;;;;;6337692;22;20069;-75
2022/11/13 08:02:22;;;;;;;47.88;27.80;;;9.00;73.50;;;;;;6310002;22;20007;-76
2022/11/13 08:04:48;;;;;;;50.50;29.42;;;9.00;73.50;;;;;;6337894;22;19995;-74
2022/11/13 08:07:14;;;;;;;48.72;30.23;;;9.10;73.40;;;;;;6337797;22;20102;-76
2022/11/13 08:09:40;;;;;;;50.00;30.02;;;9.20;73.40;;;;;;6338284;22;19995;-76
2022/11/13 08:12:05;;;;;;;46.92;28.85;;;9.30;73.30;;;;;;6338026;22;19994;-74
2022/11/13 08:14:31;;;;;;;51.05;30.52;;;9.40;73.20;;;;;;6337862;22;20097;-75
2022/11/13 08:16:57;;;;;;;49.97;30.40;;;9.50;73.10;;;;;;6338404;22;19987;-75
2022/11/13 08:19:23;;;;;;;50.25;30.00;;;9.60;72.90;;;;;;6337804;22;20014;-75
2022/11/13 08:21:48;;;;;;;50.92;29.52;;;9.70;72.80;;;;;;6337775;22;20377;-74
2022/11/13 08:24:14;;;;;;;39.80;23.15;;;9.80;72.60;;;;;;6337843;22;19999;-74
2022/11/13 08:26:40;;;;;;;28.63;18.70;;;9.80;72.50;;;;;;6309461;22;20445;-74
2022/11/13 08:29:06;;;;;;;23.92;16.25;;;9.90;72.30;;;;;;6338112;22;20468;-76
2022/11/13 08:31:31;;;;;;;28.10;16.52;;;10.00;72.10;;;;;;6337387;22;19995;-76
2022/11/13 08:33:59;;;;;;;24.17;15.45;;;10.10;72.00;;;;;;6337607;22;20419;-74
2022/11/13 08:36:25;;;;;;;31.65;15.38;;;10.20;71.70;;;;;;6337593;22;20019;-75
2022/11/13 08:38:50;;;;;;;24.77;15.15;;;10.20;71.40;;;;;;6337645;22;20002;-74
2022/11/13 08:41:16;;;;;;;23.17;14.90;;;10.30;71.10;;;;;;6337547;22;20007;-76
2022/11/13 08:43:42;;;;;;;22.30;14.43;;;10.40;70.50;;;;;;6337513;22;20002;-75
2022/11/13 08:46:08;;;;;;;20.08;13.00;;;10.40;70.30;;;;;;6337475;22;20044;-75
2022/11/13 08:48:34;;;;;;;21.77;11.70;;;10.50;69.90;;;;;;6337610;22;19999;-74
2022/11/13 08:50:59;;;;;;;17.38;11.43;;;10.50;69.40;;;;;;6336842;22;20053;-76
2022/11/13 08:53:25;;;;;;;20.70;11.20;;;10.60;69.30;;;;;;6337524;22;20382;-75
2022/11/13 08:55:51;;;;;;;19.13;11.07;;;10.70;69.30;;;;;;6309666;22;20007;-76
2022/11/13 08:58:17;;;;;;;17.27;11.82;;;10.70;69.00;;;;;;6337423;22;20025;-75
2022/11/13 09:00:43;;;;;;;17.83;10.13;;;10.80;69.00;;;;;;6337284;22;19991;-74
2022/11/13 09:03:11;;;;;;;16.17;8.90;;;10.90;69.10;;;;;;6309654;22;20023;-75
2022/11/13 09:05:37;;;;;;;22.88;10.77;;;11.00;69.20;;;;;;6310008;22;20052;-76
2022/11/13 09:08:04;;;;;;;15.38;9.85;;;11.00;68.90;;;;;;6337507;22;20082;-75
2022/11/13 09:10:30;;;;;;;14.98;10.18;;;11.10;68.80;;;;;;6337767;22;19999;-75
2022/11/13 09:13:01;;;;;;;16.02;9.90;;;11.20;68.80;;;;;;6337695;22;20903;-74
2022/11/13 09:15:28;;;;;;;14.18;9.25;;;11.20;68.40;;;;;;6309944;22;20013;-75
2022/11/13 09:18:01;;;;;;;12.05;8.63;;;11.30;68.50;;;;;;6337657;22;20007;-76
2022/11/13 09:20:29;;;;;;;18.98;10.25;;;11.40;68.30;;;;;;6337340;22;20030;-73
2022/11/13 09:23:04;;;;;;;19.85;12.32;;;11.50;67.90;;;;;;6337618;22;20003;-75
2022/11/13 09:25:31;;;;;;;14.27;9.80;;;11.60;67.80;;;;;;6309965;22;20420;-75
2022/11/13 09:27:59;;;;;;;12.20;8.60;;;11.70;67.50;;;;;;6337482;22;20081;-76
2022/11/13 09:30:26;;;;;;;21.80;9.85;;;11.80;67.10;;;;;;6337180;22;20026;-75
2022/11/13 09:32:53;;;;;;;14.15;8.50;;;11.80;66.20;;;;;;6337653;22;20350;-75
2022/11/13 09:35:32;;;;;;;14.27;8.90;;;11.90;65.30;;;;;;6337507;22;20422;-75
2022/11/13 09:38:07;;;;;;;12.68;7.90;;;12.00;65.10;;;;;;6310758;22;20329;-75
2022/11/13 09:40:51;;;;;;;18.42;9.43;;;12.20;65.80;;;;;;6339312;22;20006;-74
2022/11/13 09:43:45;;;;;;;17.98;9.73;;;12.30;65.50;;;;;;6311738;22;20010;-75
2022/11/13 09:46:19;;;;;;;23.42;13.07;;;12.40;65.40;;;;;;6339287;22;20005;-74
2022/11/13 09:49:14;;;;;;;23.40;14.00;;;12.60;65.60;;;;;;6339239;22;20006;-75
2022/11/13 09:51:43;;;;;;;26.67;14.88;;;12.70;65.70;;;;;;6311723;22;20021;-75
2022/11/13 09:54:13;;;;;;;25.02;15.18;;;12.80;65.70;;;;;;6339199;22;20322;-75
2022/11/13 09:57:00;;;;;;;34.55;15.95;;;12.90;65.50;;;;;;6339174;22;20005;-77
2022/11/13 09:59:29;;;;;;;26.13;15.10;;;13.00;65.30;;;;;;6339231;22;20022;-76
2022/11/13 10:02:21;;;;;;;26.55;13.82;;;13.10;64.90;;;;;;6338756;22;20052;-76
2022/11/13 10:04:59;;;;;;;23.52;14.45;;;13.10;65.50;;;;;;6339186;22;19998;-74
2022/11/13 10:07:46;;;;;;;23.65;14.95;;;13.20;64.60;;;;;;6338690;22;20489;-76
2022/11/13 10:10:27;;;;;;;28.02;15.82;;;13.20;64.30;;;;;;6338768;22;20052;-74
2022/11/13 10:12:57;;;;;;;22.85;14.30;;;13.40;64.20;;;;;;6338806;22;20033;-75
2022/11/13 10:15:23;;;;;;;28.50;16.52;;;13.40;64.10;;;;;;6339021;22;19995;-75
2022/11/13 10:17:52;;;;;;;31.58;14.35;;;13.50;64.10;;;;;;6338858;22;20426;-75
2022/11/13 10:20:47;;;;;;;30.60;16.27;;;13.50;64.10;;;;;;6338700;22;20011;-75
2022/11/13 10:23:19;;;;;;;25.20;14.82;;;13.60;63.50;;;;;;6318729;22;20013;-76
2022/11/13 10:25:46;;;;;;;25.73;14.00;;;13.70;63.60;;;;;;6338916;22;20006;-74
2022/11/13 10:28:22;;;;;;;25.13;14.98;;;13.70;63.60;;;;;;6338581;22;20082;-75
2022/11/13 10:30:49;;;;;;;24.33;14.65;;;13.80;63.70;;;;;;6338434;22;20029;-74
2022/11/13 10:33:20;;;;;;;26.45;14.70;;;13.80;63.70;;;;;;6311147;22;20026;-75
2022/11/13 10:36:13;;;;;;;30.77;15.30;;;13.90;63.60;;;;;;6338953;22;20419;-74
2022/11/13 10:38:43;;;;;;;23.60;14.45;;;13.90;63.40;;;;;;6338637;22;20073;-74
2022/11/13 10:41:19;;;;;;;25.67;14.57;;;14.00;63.40;;;;;;6338788;22;20003;-74
2022/11/13 10:43:53;;;;;;;23.63;13.48;;;14.00;62.80;;;;;;6338908;22;19995;-75
2022/11/13 10:46:23;;;;;;;23.98;13.63;;;14.10;62.70;;;;;;6338645;22;20425;-74
2022/11/13 10:48:49;;;;;;;28.17;14.68;;;14.10;62.80;;;;;;6338388;22;20362;-74
2022/11/13 10:51:21;;;;;;;24.80;14.32;;;14.20;63.00;;;;;;6310938;22;20445;-74
2022/11/13 10:53:47;;;;;;;26.80;14.48;;;14.20;62.80;;;;;;6310417;22;20326;-75
2022/11/13 10:56:24;;;;;;;26.27;15.00;;;14.30;63.00;;;;;;6338988;22;20078;-74
2022/11/13 10:59:10;;;;;;;25.17;13.43;;;14.30;62.70;;;;;;6338303;22;20433;-75
2022/11/13 11:01:36;;;;;;;27.60;14.43;;;14.40;62.60;;;;;;6337918;22;20456;-73
2022/11/13 11:04:22;;;;;;;25.00;13.48;;;14.40;62.20;;;;;;6338722;22;19999;-74
2022/11/13 11:06:50;;;;;;;23.08;13.20;;;14.50;62.00;;;;;;6338758;22;20006;-74
2022/11/13 11:09:21;;;;;;;26.67;14.20;;;14.50;62.00;;;;;;6338755;22;20037;-73
2022/11/13 11:12:19;;;;;;;23.35;13.98;;;14.50;61.10;;;;;;6338542;22;20335;-74
2022/11/13 11:15:00;;;;;;;22.35;12.43;;;14.60;61.50;;;;;;6337632;22;20003;-74
2022/11/13 11:17:48;;;;;;;25.08;12.38;;;14.70;61.00;;;;;;6310926;22;20003;-74
2022/11/13 11:20:15;;;;;;;20.88;11.55;;;14.70;61.30;;;;;;6310898;22;20019;-74
2022/11/13 11:22:42;;;;;;;19.40;12.27;;;14.80;61.40;;;;;;6338320;22;20030;-75
2022/11/13 11:25:36;;;;;;;21.05;10.77;;;14.80;60.60;;;;;;6337970;22;20020;-76
2022/11/13 11:28:21;;;;;;;22.00;12.65;;;14.90;60.90;;;;;;6311040;22;20017;-76
2022/11/13 11:30:58;;;;;;;24.27;12.55;;;14.90;60.40;;;;;;6338342;22;20051;-76
2022/11/13 11:33:38;;;;;;;24.33;11.80;;;15.00;60.30;;;;;;6338568;22;20045;-76
2022/11/13 11:36:29;;;;;;;22.05;12.68;;;15.00;60.00;;;;;;6337654;22;20048;-74
2022/11/13 11:39:13;;;;;;;22.42;12.43;;;15.10;59.90;;;;;;6338351;22;19995;-75
2022/11/13 11:42:17;;;;;;;21.23;11.75;;;15.10;59.90;;;;;;6338389;22;20381;-74
2022/11/13 11:44:52;;;;;;;21.38;12.65;;;15.20;60.10;;;;;;6309284;22;20003;-74
2022/11/13 11:47:18;;;;;;;18.10;10.93;;;15.30;59.50;;;;;;6310560;22;20341;-74
2022/11/13 11:49:44;;;;;;;20.27;11.30;;;15.30;59.60;;;;;;6338403;22;20020;-76
2022/11/13 11:53:05;;;;;;;20.27;11.88;;;15.40;59.00;;;;;;6338433;22;20003;-75
2022/11/13 11:56:11;;;;;;;18.92;10.85;;;15.40;59.00;;;;;;6159206;23;20008;-75
2022/11/13 11:58:37;;;;;;;17.02;10.07;;;15.50;59.30;;;;;;6157686;23;20009;-74
2022/11/13 12:01:40;;;;;;;16.48;8.75;;;15.60;58.50;;;;;;6182044;23;20016;-73
2022/11/13 12:04:35;;;;;;;13.55;9.05;;;15.60;58.70;;;;;;6169110;23;20080;-76
2022/11/13 12:07:26;;;;;;;13.80;8.85;;;15.70;58.10;;;;;;6157526;23;20013;-74
2022/11/13 12:10:12;;;;;;;12.20;7.75;;;15.80;57.80;;;;;;6182060;23;20009;-75
2022/11/13 12:12:45;;;;;;;13.50;7.47;;;15.80;57.30;;;;;;6166578;23;20005;-74
2022/11/13 12:15:46;;;;;;;14.40;7.50;;;15.90;57.60;;;;;;6157526;23;20403;-75
2022/11/13 12:18:35;;;;;;;12.80;7.25;;;16.00;57.20;;;;;;6093742;23;20559;-74
2022/11/13 12:21:15;;;;;;;8.68;5.97;;;16.00;55.10;;;;;;6121574;23;20021;-75
2022/11/13 12:23:52;;;;;;;8.55;5.78;;;16.10;55.70;;;;;;6123153;23;20349;-75
2022/11/13 12:26:24;;;;;;;9.50;6.30;;;16.10;55.20;;;;;;6098450;23;20090;-76
2022/11/13 12:29:20;;;;;;;7.95;5.32;;;16.20;54.80;;;;;;6149429;23;20008;-74
2022/11/13 12:32:07;;;;;;;8.95;5.80;;;16.30;54.80;;;;;;6242448;23;20001;-75
2022/11/13 12:34:47;;;;;;;10.65;5.95;;;16.40;54.50;;;;;;6217193;23;20088;-74
2022/11/13 12:37:25;;;;;;;10.93;6.00;;;16.50;54.50;;;;;;6242739;23;20062;-75
2022/11/13 12:39:58;;;;;;;10.43;5.88;;;16.50;53.80;;;;;;6242640;23;20019;-76
2022/11/13 12:42:23;;;;;;;12.32;6.93;;;16.60;53.80;;;;;;6242606;23;20011;-76
2022/11/13 12:45:01;;;;;;;11.52;6.57;;;16.70;53.60;;;;;;6241931;23;20008;-75
2022/11/13 12:47:27;;;;;;;11.07;6.10;;;16.70;53.30;;;;;;6215419;23;20812;-73
2022/11/13 12:50:04;;;;;;;10.98;6.53;;;16.70;53.10;;;;;;6215166;23;20004;-75
2022/11/13 12:52:30;;;;;;;12.60;5.88;;;16.70;52.30;;;;;;6281727;22;20097;-75
2022/11/13 12:55:22;;;;;;;11.80;6.20;;;16.80;52.70;;;;;;6305361;22;19999;-75